createdAt,value
2023-02-27T00:01:21.374Z,-1.40
2023-02-27T00:03:48.659Z,-1.40
2023-02-27T00:06:17.797Z,-1.40
2023-02-27T00:08:45.023Z,-1.40
2023-02-27T00:11:12.231Z,-1.40
2023-02-27T00:13:40.034Z,-1.40
2023-02-27T00:16:08.306Z,-1.50
2023-02-27T00:18:35.432Z,-1.50
2023-02-27T00:21:02.616Z,-1.50
2023-02-27T00:23:29.728Z,-1.60
2023-02-27T00:25:56.911Z,-1.60
2023-02-27T00:28:24.054Z,-1.60
2023-02-27T00:30:51.203Z,-1.60
2023-02-27T00:33:18.523Z,-1.70
2023-02-27T00:35:45.623Z,-1.70
2023-02-27T00:38:13.017Z,-1.70
2023-02-27T00:40:40.456Z,-1.70
2023-02-27T00:43:07.641Z,-1.70
2023-02-27T00:45:34.761Z,-1.60
2023-02-27T00:48:02.110Z,-1.70
2023-02-27T00:50:29.289Z,-1.70
2023-02-27T00:52:56.512Z,-1.70
2023-02-27T00:55:25.274Z,-1.70
2023-02-27T00:57:53.358Z,-1.80
2023-02-27T01:00:20.767Z,-1.90
2023-02-27T01:02:48.093Z,-1.90
2023-02-27T01:05:15.558Z,-1.90
2023-02-27T01:07:42.772Z,-1.90
2023-02-27T01:10:12.281Z,-1.90
2023-02-27T01:12:40.453Z,-1.90
2023-02-27T01:15:09.725Z,-2.00
2023-02-27T01:17:37.226Z,-2.00
2023-02-27T01:20:06.883Z,-2.00
2023-02-27T01:22:34.995Z,-2.10
2023-02-27T01:25:02.564Z,-2.10
2023-02-27T01:27:29.786Z,-2.10
2023-02-27T01:29:58.477Z,-2.20
2023-02-27T01:32:25.960Z,-2.20
2023-02-27T01:34:53.157Z,-2.30
2023-02-27T01:37:20.253Z,-2.20
2023-02-27T01:39:47.382Z,-2.30
2023-02-27T01:42:26.753Z,-2.30
2023-02-27T01:45:22.411Z,-2.30
2023-02-27T01:47:54.517Z,-2.40
2023-02-27T01:50:22.356Z,-2.40
2023-02-27T01:52:56.512Z,-2.40
2023-02-27T01:55:27.121Z,-2.40
2023-02-27T01:57:54.969Z,-2.40
2023-02-27T02:00:23.225Z,-2.50
2023-02-27T02:03:05.010Z,-2.50
2023-02-27T02:05:32.579Z,-2.50
2023-02-27T02:08:00.741Z,-2.50
2023-02-27T02:10:29.657Z,-2.60
2023-02-27T02:12:57.029Z,-2.60
2023-02-27T02:15:33.703Z,-2.50
2023-02-27T02:18:12.508Z,-2.60
2023-02-27T02:21:15.943Z,-2.60
2023-02-27T02:24:00.581Z,-2.70
2023-02-27T02:26:37.321Z,-2.70
2023-02-27T02:30:01.720Z,-2.80
2023-02-27T02:33:12.199Z,-2.80
2023-02-27T02:36:04.366Z,-2.80
2023-02-27T02:39:01.411Z,-2.80
2023-02-27T02:42:09.266Z,-2.70
2023-02-27T02:44:57.820Z,-2.70
2023-02-27T02:48:17.798Z,-2.60
2023-02-27T02:51:08.373Z,-2.60
2023-02-27T02:54:00.460Z,-2.50
2023-02-27T02:56:44.518Z,-2.40
2023-02-27T02:59:38.012Z,-2.30
2023-02-27T03:02:42.745Z,-2.30
2023-02-27T03:05:22.888Z,-2.10
2023-02-27T03:07:56.442Z,-1.90
2023-02-27T03:10:51.284Z,-1.80
2023-02-27T03:13:27.407Z,-1.80
2023-02-27T03:16:28.862Z,-1.70
2023-02-27T03:19:18.396Z,-1.80
2023-02-27T03:21:53.830Z,-1.80
2023-02-27T03:24:40.306Z,-1.80
2023-02-27T03:27:09.580Z,-1.70
2023-02-27T03:29:57.551Z,-1.50
2023-02-27T03:32:53.927Z,-1.30
2023-02-27T03:35:21.477Z,-1.30
2023-02-27T03:38:24.909Z,-1.20
2023-02-27T03:41:10.894Z,-1.10
2023-02-27T03:43:51.634Z,-1.00
2023-02-27T03:46:24.160Z,-1.00
2023-02-27T03:48:51.960Z,-0.90
2023-02-27T03:51:23.233Z,-0.80
2023-02-27T03:54:30.682Z,-0.70
2023-02-27T03:57:06.580Z,-0.60
2023-02-27T03:59:35.912Z,-0.60
2023-02-27T04:02:05.032Z,-0.60
2023-02-27T04:04:35.649Z,-0.60
2023-02-27T04:07:44.199Z,-0.70
2023-02-27T04:10:17.320Z,-0.50
2023-02-27T04:13:02.496Z,-0.50
2023-02-27T04:16:05.736Z,-0.50
2023-02-27T04:19:14.167Z,-0.60
2023-02-27T04:22:26.593Z,-0.60
2023-02-27T04:25:24.589Z,-0.60
2023-02-27T04:28:04.052Z,-0.60
2023-02-27T04:30:53.990Z,-0.70
2023-02-27T04:33:30.918Z,-0.60
2023-02-27T04:36:11.319Z,-0.50
2023-02-27T04:39:11.630Z,-0.50
2023-02-27T04:41:50.421Z,-0.80
2023-02-27T04:44:21.747Z,-0.90
2023-02-27T04:46:51.584Z,-0.90
2023-02-27T04:49:35.880Z,-1.00
2023-02-27T04:52:18.325Z,-1.10
2023-02-27T04:55:07.657Z,-0.90
2023-02-27T04:57:47.490Z,-0.70
2023-02-27T05:00:17.120Z,-0.50
2023-02-27T05:02:49.935Z,-0.40
2023-02-27T05:05:24.399Z,-0.30
2023-02-27T05:08:05.069Z,-0.40
2023-02-27T05:10:47.304Z,-0.40
2023-02-27T05:13:29.724Z,-0.50
2023-02-27T05:16:08.987Z,-0.50
2023-02-27T05:18:36.566Z,-0.50
2023-02-27T05:21:22.574Z,-0.40
2023-02-27T05:24:17.447Z,-0.30
2023-02-27T05:26:53.190Z,-0.30
2023-02-27T05:30:09.509Z,-0.50
2023-02-27T05:32:53.208Z,-0.50
2023-02-27T05:35:32.151Z,-0.40
2023-02-27T05:38:06.172Z,-0.50
2023-02-27T05:40:54.319Z,-0.50
2023-02-27T05:43:51.782Z,-0.70
2023-02-27T05:46:27.936Z,-0.80
2023-02-27T05:49:01.851Z,-1.00
2023-02-27T05:51:36.153Z,-1.00
2023-02-27T05:54:12.964Z,-1.10
2023-02-27T05:56:43.293Z,-1.10
2023-02-27T05:59:35.958Z,-0.90
2023-02-27T06:02:03.437Z,-1.00
2023-02-27T06:04:30.653Z,-0.90
2023-02-27T06:06:58.311Z,-0.80
2023-02-27T06:09:25.369Z,-0.80
2023-02-27T06:11:52.416Z,-0.80
2023-02-27T06:14:19.844Z,-0.80
2023-02-27T06:16:46.989Z,-0.60
2023-02-27T06:19:14.069Z,-0.50
2023-02-27T06:21:41.332Z,-0.50
2023-02-27T06:24:08.429Z,-0.40
2023-02-27T06:26:35.598Z,-0.50
2023-02-27T06:29:02.773Z,-0.30
2023-02-27T06:31:29.938Z,-0.50
2023-02-27T06:33:56.968Z,-0.40
2023-02-27T06:36:24.235Z,-0.40
2023-02-27T06:38:51.255Z,-0.20
2023-02-27T06:41:19.177Z,-0.10
2023-02-27T06:43:46.275Z,0.10
2023-02-27T06:46:13.351Z,0.30
2023-02-27T06:48:40.640Z,0.50
2023-02-27T06:51:07.815Z,0.60
2023-02-27T06:53:34.896Z,0.70
2023-02-27T06:56:01.902Z,0.70
2023-02-27T06:58:29.044Z,0.60
2023-02-27T07:00:59.140Z,0.50
2023-02-27T07:03:26.412Z,0.60
2023-02-27T07:05:53.582Z,0.50
2023-02-27T07:08:20.661Z,0.60
2023-02-27T07:10:49.187Z,0.40
2023-02-27T07:13:19.525Z,0.50
2023-02-27T07:15:47.096Z,0.60
2023-02-27T07:18:14.194Z,0.40
2023-02-27T07:20:41.263Z,0.80
2023-02-27T07:23:08.296Z,0.90
2023-02-27T07:25:35.450Z,0.90
2023-02-27T07:28:02.864Z,0.80
2023-02-27T07:30:30.857Z,0.80
2023-02-27T07:32:57.995Z,1.00
2023-02-27T07:35:25.170Z,1.10
2023-02-27T07:37:52.765Z,1.00
2023-02-27T07:40:19.981Z,1.00
2023-02-27T07:42:52.737Z,1.10
2023-02-27T07:45:20.353Z,1.40
2023-02-27T07:47:47.473Z,1.50
2023-02-27T07:50:15.343Z,1.50
2023-02-27T07:52:43.822Z,1.60
2023-02-27T07:55:12.598Z,1.80
2023-02-27T07:57:39.939Z,1.80
2023-02-27T08:00:09.879Z,1.80
2023-02-27T08:02:40.193Z,2.00
2023-02-27T08:05:08.235Z,2.10
2023-02-27T08:07:36.643Z,2.10
2023-02-27T08:10:05.656Z,2.10
2023-02-27T08:12:32.737Z,2.20
2023-02-27T08:14:59.909Z,2.30
2023-02-27T08:17:26.995Z,2.20
2023-02-27T08:19:54.111Z,2.30
2023-02-27T08:22:21.599Z,2.50
2023-02-27T08:24:48.754Z,2.80
2023-02-27T08:27:15.903Z,2.80
2023-02-27T08:29:43.515Z,2.90
2023-02-27T08:32:10.659Z,3.00
2023-02-27T08:34:37.858Z,2.80
2023-02-27T08:37:04.946Z,2.50
2023-02-27T08:39:32.078Z,2.70
2023-02-27T08:41:59.187Z,2.80
2023-02-27T08:44:26.388Z,2.80
2023-02-27T08:46:53.416Z,2.80
2023-02-27T08:49:22.744Z,2.90
2023-02-27T08:51:50.002Z,2.60
2023-02-27T08:54:19.327Z,2.80
2023-02-27T08:56:48.453Z,2.60
2023-02-27T08:59:15.915Z,2.90
2023-02-27T09:01:43.651Z,3.00
2023-02-27T09:04:11.745Z,3.30
2023-02-27T09:06:39.756Z,3.40
2023-02-27T09:09:07.192Z,3.40
2023-02-27T09:11:34.757Z,3.10
2023-02-27T09:14:02.658Z,3.10
2023-02-27T09:16:30.494Z,3.40
2023-02-27T09:18:58.832Z,3.60
2023-02-27T09:21:26.086Z,3.60
2023-02-27T09:23:53.526Z,3.80
2023-02-27T09:26:22.913Z,3.30
2023-02-27T09:28:53.625Z,3.30
2023-02-27T09:31:20.798Z,3.60
2023-02-27T09:33:48.032Z,3.90
2023-02-27T09:36:16.425Z,4.10
2023-02-27T09:38:43.538Z,4.10
2023-02-27T09:41:50.830Z,3.80
2023-02-27T09:44:47.102Z,3.90
2023-02-27T09:47:41.141Z,4.10
2023-02-27T09:50:34.179Z,4.60
2023-02-27T09:53:01.597Z,5.00
2023-02-27T09:55:35.106Z,5.10
2023-02-27T09:58:11.070Z,5.30
2023-02-27T10:00:54.057Z,5.00
2023-02-27T10:03:50.275Z,5.50
2023-02-27T10:06:34.763Z,5.50
2023-02-27T10:09:16.922Z,5.70
2023-02-27T10:12:25.104Z,6.00
2023-02-27T10:15:10.675Z,5.60
2023-02-27T10:17:48.550Z,5.30
2023-02-27T10:20:33.892Z,5.70
2023-02-27T10:23:11.786Z,6.10
2023-02-27T10:25:48.350Z,5.90
2023-02-27T10:28:20.497Z,5.80
2023-02-27T10:30:53.201Z,5.40
2023-02-27T10:33:39.446Z,5.50
2023-02-27T10:36:20.727Z,5.30
2023-02-27T10:39:03.805Z,5.40
2023-02-27T10:41:31.129Z,5.10
2023-02-27T10:44:00.853Z,4.90
2023-02-27T10:46:32.284Z,4.80
2023-02-27T10:49:01.960Z,4.50
2023-02-27T10:51:39.265Z,4.30
2023-02-27T10:54:26.058Z,4.10
2023-02-27T10:56:57.023Z,4.00
2023-02-27T10:59:32.850Z,3.80
2023-02-27T11:02:05.121Z,3.80
2023-02-27T11:04:40.809Z,3.50
2023-02-27T11:07:12.554Z,3.60
2023-02-27T11:09:39.670Z,3.70
2023-02-27T11:12:34.732Z,3.80
2023-02-27T11:15:23.295Z,3.90
2023-02-27T11:17:50.531Z,4.30
2023-02-27T11:20:44.160Z,4.50
2023-02-27T11:23:24.033Z,4.20
2023-02-27T11:25:51.974Z,4.60
2023-02-27T11:28:28.339Z,4.30
2023-02-27T11:31:06.824Z,4.80
2023-02-27T11:33:48.521Z,5.10
2023-02-27T11:36:17.807Z,5.40
2023-02-27T11:38:53.490Z,5.90
2023-02-27T11:41:30.498Z,5.80
2023-02-27T11:43:59.191Z,5.90
2023-02-27T11:46:46.572Z,6.20
2023-02-27T11:49:33.359Z,6.30
2023-02-27T11:52:24.884Z,7.00
2023-02-27T11:54:58.474Z,7.30
2023-02-27T11:57:32.462Z,7.50
2023-02-27T12:00:08.904Z,7.70
2023-02-27T12:03:12.897Z,7.60
2023-02-27T12:05:57.769Z,7.30
2023-02-27T12:08:53.918Z,8.00
2023-02-27T12:11:35.686Z,7.70
2023-02-27T12:14:17.541Z,8.30
2023-02-27T12:17:09.349Z,8.50
2023-02-27T12:19:43.941Z,8.30
2023-02-27T12:22:29.764Z,8.20
2023-02-27T12:25:19.217Z,8.00
2023-02-27T12:28:23.646Z,7.90
2023-02-27T12:31:13.793Z,7.40
2023-02-27T12:34:26.157Z,7.50
2023-02-27T12:36:54.339Z,7.90
2023-02-27T12:39:24.354Z,8.60
2023-02-27T12:41:54.272Z,10.30
2023-02-27T12:44:27.333Z,11.10
2023-02-27T12:47:38.555Z,10.70
2023-02-27T12:50:22.237Z,9.90
2023-02-27T12:53:30.369Z,8.90
2023-02-27T12:56:19.477Z,8.40
2023-02-27T12:59:18.981Z,7.80
2023-02-27T13:01:58.608Z,7.30
2023-02-27T13:04:48.654Z,7.70
2023-02-27T13:07:29.169Z,8.40
2023-02-27T13:10:23.215Z,10.10
2023-02-27T13:13:13.516Z,10.50
2023-02-27T13:15:51.186Z,10.70
2023-02-27T13:18:47.438Z,12.00
2023-02-27T13:21:51.372Z,13.50
2023-02-27T13:24:28.262Z,13.20
2023-02-27T13:27:14.952Z,14.70
2023-02-27T13:29:48.039Z,16.20
2023-02-27T13:32:44.943Z,16.10
2023-02-27T13:35:48.448Z,15.20
2023-02-27T13:38:45.961Z,14.50
2023-02-27T13:41:25.072Z,13.30
2023-02-27T13:43:54.046Z,12.50
2023-02-27T13:46:39.494Z,12.00
2023-02-27T13:49:10.672Z,11.10
2023-02-27T13:51:39.933Z,10.20
2023-02-27T13:54:16.302Z,9.00
2023-02-27T13:56:59.417Z,8.00
2023-02-27T13:59:30.058Z,7.80
2023-02-27T14:02:05.115Z,7.30
2023-02-27T14:04:37.607Z,7.10
2023-02-27T14:07:15.281Z,7.00
2023-02-27T14:09:46.308Z,6.90
2023-02-27T14:12:46.481Z,6.90
2023-02-27T14:15:22.878Z,8.50
2023-02-27T14:18:05.848Z,8.50
2023-02-27T14:20:40.345Z,8.50
2023-02-27T14:23:26.566Z,9.70
2023-02-27T14:26:05.371Z,10.60
2023-02-27T14:28:51.881Z,11.40
2023-02-27T14:31:32.411Z,10.70
2023-02-27T14:34:09.201Z,9.60
2023-02-27T14:36:57.721Z,8.90
2023-02-27T14:39:36.238Z,9.20
2023-02-27T14:42:26.985Z,9.50
2023-02-27T14:44:55.145Z,8.90
2023-02-27T14:47:33.560Z,8.30
2023-02-27T14:50:04.139Z,8.20
2023-02-27T14:52:42.013Z,7.60
2023-02-27T14:55:29.524Z,6.70
2023-02-27T14:58:00.734Z,6.80
2023-02-27T15:00:33.311Z,6.60
2023-02-27T15:03:01.205Z,6.50
2023-02-27T15:05:34.861Z,6.20
2023-02-27T15:08:02.147Z,6.10
2023-02-27T15:10:31.144Z,6.00
2023-02-27T15:13:00.436Z,6.00
2023-02-27T15:15:28.342Z,5.70
2023-02-27T15:17:55.987Z,5.60
2023-02-27T15:20:30.219Z,5.50
2023-02-27T15:23:18.068Z,5.40
2023-02-27T15:25:45.596Z,5.20
2023-02-27T15:28:38.190Z,5.00
2023-02-27T15:31:07.581Z,4.90
2023-02-27T15:33:34.983Z,4.70
2023-02-27T15:36:02.415Z,4.70
2023-02-27T15:38:38.194Z,4.60
2023-02-27T15:41:17.644Z,4.30
2023-02-27T15:43:44.996Z,4.30
2023-02-27T15:46:12.249Z,3.80
2023-02-27T15:48:39.630Z,3.50
2023-02-27T15:51:10.270Z,3.20
2023-02-27T15:53:37.399Z,3.20
2023-02-27T15:56:09.550Z,3.20
2023-02-27T15:58:50.796Z,3.10
2023-02-27T16:01:21.816Z,3.20
2023-02-27T16:03:53.132Z,3.20
2023-02-27T16:06:23.472Z,3.10
2023-02-27T16:09:01.423Z,3.20
2023-02-27T16:11:35.374Z,3.10
2023-02-27T16:14:04.135Z,3.10
2023-02-27T16:16:38.835Z,3.10
2023-02-27T16:19:31.310Z,3.10
2023-02-27T16:22:17.520Z,3.10
2023-02-27T16:24:45.661Z,3.00
2023-02-27T16:27:28.905Z,3.00
2023-02-27T16:30:02.543Z,3.00
2023-02-27T16:32:41.569Z,3.00
2023-02-27T16:35:18.801Z,3.00
2023-02-27T16:37:46.320Z,2.90
2023-02-27T16:40:37.103Z,2.90
2023-02-27T16:43:04.548Z,2.90
2023-02-27T16:45:31.997Z,2.80
2023-02-27T16:48:00.770Z,2.70
2023-02-27T16:50:43.021Z,2.70
2023-02-27T16:53:10.287Z,2.50
2023-02-27T16:55:43.456Z,2.50
2023-02-27T16:58:18.962Z,2.40
2023-02-27T17:00:46.133Z,2.30
2023-02-27T17:03:14.374Z,2.20
2023-02-27T17:05:41.607Z,2.10
2023-02-27T17:08:11.059Z,2.20
2023-02-27T17:10:38.150Z,2.20
2023-02-27T17:13:05.321Z,2.30
2023-02-27T17:15:32.571Z,2.30
2023-02-27T17:17:59.748Z,2.30
2023-02-27T17:20:30.088Z,2.30
2023-02-27T17:22:57.770Z,2.40
2023-02-27T17:25:25.602Z,2.40
2023-02-27T17:27:52.964Z,2.20
2023-02-27T17:30:20.890Z,2.00
2023-02-27T17:32:47.967Z,1.80
2023-02-27T17:35:15.141Z,1.90
2023-02-27T17:37:42.233Z,2.10
2023-02-27T17:40:12.358Z,2.20
2023-02-27T17:42:40.073Z,2.30
2023-02-27T17:45:08.631Z,2.40
2023-02-27T17:47:36.016Z,2.50
2023-02-27T17:50:04.586Z,2.50
2023-02-27T17:52:31.772Z,2.50
2023-02-27T17:54:58.891Z,2.50
2023-02-27T17:57:26.024Z,2.40
2023-02-27T17:59:53.170Z,2.40
2023-02-27T18:02:20.537Z,2.50
2023-02-27T18:04:47.838Z,2.40
2023-02-27T18:07:15.014Z,2.40
2023-02-27T18:09:42.301Z,2.50
2023-02-27T18:12:09.399Z,2.40
2023-02-27T18:14:36.638Z,2.40
2023-02-27T18:17:06.830Z,2.40
2023-02-27T18:19:33.938Z,2.40
2023-02-27T18:22:01.058Z,2.50
2023-02-27T18:24:28.153Z,2.40
2023-02-27T18:26:55.243Z,2.40
2023-02-27T18:29:22.386Z,2.50
2023-02-27T18:31:53.505Z,2.50
2023-02-27T18:34:22.509Z,2.50
2023-02-27T18:36:51.892Z,2.50
2023-02-27T18:39:19.441Z,2.50
2023-02-27T18:41:47.619Z,2.50
2023-02-27T18:44:14.789Z,2.30
2023-02-27T18:46:41.969Z,2.40
2023-02-27T18:49:09.644Z,2.40
2023-02-27T18:51:37.733Z,2.40
2023-02-27T18:54:06.997Z,2.20
2023-02-27T18:56:34.138Z,2.10
2023-02-27T18:59:05.316Z,2.10
2023-02-27T19:01:37.105Z,2.00
2023-02-27T19:04:06.565Z,2.00
2023-02-27T19:06:41.081Z,1.90
2023-02-27T19:09:12.659Z,2.00
2023-02-27T19:11:39.913Z,1.90
2023-02-27T19:14:11.354Z,1.80
2023-02-27T19:16:39.223Z,1.70
2023-02-27T19:19:08.727Z,1.80
2023-02-27T19:21:36.218Z,1.80
2023-02-27T19:24:03.806Z,1.90
2023-02-27T19:26:34.237Z,1.90
2023-02-27T19:29:02.309Z,1.90
2023-02-27T19:31:29.663Z,2.00
2023-02-27T19:33:57.589Z,2.00
2023-02-27T19:36:27.597Z,2.10
2023-02-27T19:38:56.464Z,2.10
2023-02-27T19:41:24.460Z,2.00
2023-02-27T19:43:58.786Z,2.10
2023-02-27T19:46:30.589Z,2.10
2023-02-27T19:49:02.649Z,2.00
2023-02-27T19:51:29.864Z,2.00
2023-02-27T19:53:57.304Z,2.00
2023-02-27T19:56:27.734Z,1.90
2023-02-27T19:58:56.181Z,1.90
2023-02-27T20:01:28.027Z,1.80
2023-02-27T20:03:59.759Z,1.70
2023-02-27T20:06:29.890Z,1.70
2023-02-27T20:08:58.968Z,1.60
2023-02-27T20:11:32.700Z,1.60
2023-02-27T20:14:00.860Z,1.60
2023-02-27T20:16:30.401Z,1.60
2023-02-27T20:18:58.003Z,1.50
2023-02-27T20:21:28.501Z,1.50
2023-02-27T20:23:56.555Z,1.60
2023-02-27T20:26:36.341Z,1.60
2023-02-27T20:29:10.763Z,1.70
2023-02-27T20:31:41.745Z,1.70
2023-02-27T20:34:12.581Z,1.80
2023-02-27T20:36:40.452Z,1.80
2023-02-27T20:39:08.562Z,1.70
2023-02-27T20:41:36.867Z,1.70
2023-02-27T20:44:10.338Z,1.70
2023-02-27T20:46:41.065Z,1.70
2023-02-27T20:49:10.303Z,1.70
2023-02-27T20:51:39.527Z,1.70
2023-02-27T20:54:09.769Z,1.70
2023-02-27T20:56:41.398Z,1.70
2023-02-27T20:59:13.624Z,1.70
2023-02-27T21:01:42.715Z,1.70
2023-02-27T21:04:09.934Z,1.80
2023-02-27T21:06:37.104Z,1.80
2023-02-27T21:09:06.666Z,1.80
2023-02-27T21:11:34.553Z,1.80
2023-02-27T21:14:10.699Z,1.90
2023-02-27T21:16:40.586Z,1.90
2023-02-27T21:19:08.746Z,1.90
2023-02-27T21:21:36.650Z,1.90
2023-02-27T21:24:05.660Z,1.90
2023-02-27T21:26:38.069Z,1.90
2023-02-27T21:29:12.609Z,1.80
2023-02-27T21:31:41.781Z,1.90
2023-02-27T21:34:14.390Z,1.90
2023-02-27T21:36:43.895Z,1.90
2023-02-27T21:39:25.676Z,1.90
2023-02-27T21:41:53.576Z,1.90
2023-02-27T21:44:25.161Z,1.90
2023-02-27T21:46:53.849Z,1.90
2023-02-27T21:49:26.600Z,1.90
2023-02-27T21:51:53.911Z,1.90
2023-02-27T21:54:21.236Z,1.90
2023-02-27T21:56:49.398Z,1.90
2023-02-27T21:59:17.838Z,2.00
2023-02-27T22:01:47.466Z,1.90
2023-02-27T22:04:17.151Z,1.90
2023-02-27T22:06:44.641Z,1.90
2023-02-27T22:09:12.155Z,1.80
2023-02-27T22:11:40.843Z,1.70
2023-02-27T22:14:09.371Z,1.80
2023-02-27T22:16:36.599Z,1.80
2023-02-27T22:19:13.503Z,1.90
2023-02-27T22:21:41.177Z,1.90
2023-02-27T22:24:08.526Z,1.80
2023-02-27T22:26:36.525Z,1.80
2023-02-27T22:29:05.620Z,1.70
2023-02-27T22:31:36.634Z,1.60
2023-02-27T22:34:12.562Z,1.50
2023-02-27T22:36:41.734Z,1.50
2023-02-27T22:39:08.933Z,1.60
2023-02-27T22:41:39.594Z,1.70
2023-02-27T22:44:08.404Z,1.80
2023-02-27T22:46:45.501Z,1.80
2023-02-27T22:49:23.751Z,1.80
2023-02-27T22:51:52.307Z,1.80
2023-02-27T22:54:21.629Z,1.90
2023-02-27T22:56:53.204Z,1.90
2023-02-27T22:59:21.049Z,1.90
2023-02-27T23:01:49.114Z,1.90
2023-02-27T23:04:21.316Z,1.90
2023-02-27T23:06:48.895Z,1.90
2023-02-27T23:09:20.630Z,1.90
2023-02-27T23:11:48.235Z,1.80
2023-02-27T23:14:15.949Z,1.80
2023-02-27T23:16:45.831Z,1.70
2023-02-27T23:19:19.199Z,1.70
2023-02-27T23:21:46.399Z,1.70
2023-02-27T23:24:17.411Z,1.70
2023-02-27T23:26:48.459Z,1.80
2023-02-27T23:29:16.136Z,1.80
2023-02-27T23:31:43.563Z,1.80
2023-02-27T23:34:10.764Z,1.80
2023-02-27T23:36:38.888Z,1.80
2023-02-27T23:39:07.086Z,1.80
2023-02-27T23:41:35.009Z,1.80
2023-02-27T23:44:02.632Z,1.80
2023-02-27T23:46:30.557Z,1.70
2023-02-27T23:49:02.040Z,1.80
2023-02-27T23:51:30.831Z,1.80
2023-02-27T23:53:59.586Z,1.70
2023-02-27T23:56:30.881Z,1.70
2023-02-27T23:59:05.284Z,1.50
